Time;durP1;ratioP1;P1;durP2;ratioP2;P2;SDS_P1;SDS_P2;PMS_P1;PMS_P2;Temp;Humidity;BMP_temperature;BMP_pressure;BME280_temperature;BME280_humidity;BME280_pressure;Samples;Min_cycle;Max_cycle;Signal;HPM_P1;HPM_P2
2023/09/22 00:01:21;;;;;;;;;;;14.80;99.90;;;;;;4956461;28;19926;-30
2023/09/22 00:03:48;;;;;;;;;;;14.90;99.90;;;;;;4966045;28;19926;-33
2023/09/22 00:06:15;;;;;;;;;;;14.80;99.90;;;;;;4971485;28;19930;-31
2023/09/22 00:08:42;;;;;;;;;;;14.80;99.90;;;;;;4974035;28;19977;-31
2023/09/22 00:11:08;;;;;;;;;;;14.90;99.90;;;;;;4956884;28;20037;-31
2023/09/22 00:13:36;;;;;;;;;;;14.90;99.90;;;;;;4955995;28;19926;-30
2023/09/22 00:16:04;;;;;;;;;;;14.90;99.90;;;;;;4973305;28;19926;-30
2023/09/22 00:18:31;;;;;;;;;;;14.80;99.90;;;;;;4972957;28;20024;-32
2023/09/22 00:20:58;;;;;;;;;;;14.80;99.90;;;;;;4956980;28;20009;-30
2023/09/22 00:23:24;;;;;;;;;;;14.90;99.90;;;;;;4973589;28;19981;-31
2023/09/22 00:25:51;;;;;;;;;;;14.90;99.90;;;;;;4956080;28;19926;-30
2023/09/22 00:28:18;;;;;;;;;;;14.90;99.90;;;;;;4954520;28;19973;-31
2023/09/22 00:30:46;;;;;;;;;;;14.90;99.90;;;;;;4971306;28;19926;-31
2023/09/22 00:33:12;;;;;;;;;;;14.90;99.90;;;;;;4956732;28;19926;-31
2023/09/22 00:35:39;;;;;;;;;;;14.90;99.90;;;;;;4972157;28;19985;-31
2023/09/22 00:38:06;;;;;;;;;;;14.90;99.90;;;;;;4956774;28;19969;-31
2023/09/22 00:40:33;;;;;;;;;;;14.90;99.90;;;;;;4956544;28;19951;-31
2023/09/22 00:43:06;;;;;;;;;;;14.90;99.90;;;;;;4973187;28;19934;-31
2023/09/22 00:45:33;;;;;;;;;;;14.90;99.90;;;;;;4957005;28;19926;-31
2023/09/22 00:48:02;;;;;;;;;;;14.90;99.90;;;;;;4955280;28;19930;-32
2023/09/22 00:50:28;;;;;;;;;;;14.90;99.90;;;;;;4972026;28;20495;-32
2023/09/22 00:52:55;;;;;;;;;;;14.90;99.90;;;;;;4972586;28;19934;-31
2023/09/22 00:55:22;;;;;;;;;;;14.90;99.90;;;;;;4972805;28;19926;-31
2023/09/22 00:57:52;;;;;;;;;;;14.90;99.90;;;;;;4971763;28;21368;-31
2023/09/22 01:00:19;;;;;;;;;;;14.90;99.90;;;;;;4960262;28;19981;-31
2023/09/22 01:02:46;;;;;;;;;;;14.90;99.90;;;;;;4966324;28;19930;-32
2023/09/22 01:05:16;;;;;;;;;;;14.90;99.90;;;;;;4972217;28;19926;-31
2023/09/22 01:07:43;;;;;;;;;;;14.90;99.90;;;;;;4971852;28;20393;-31
2023/09/22 01:10:09;;;;;;;;;;;14.90;99.90;;;;;;4973399;28;19970;-31
2023/09/22 01:12:36;;;;;;;;;;;14.90;99.90;;;;;;4972392;28;20005;-30
2023/09/22 01:15:03;;;;;;;;;;;14.90;99.90;;;;;;4972201;28;20276;-30
2023/09/22 01:17:30;;;;;;;;;;;14.90;99.90;;;;;;4969313;28;19981;-32
2023/09/22 01:19:57;;;;;;;;;;;14.90;99.90;;;;;;4972885;28;20036;-31
2023/09/22 01:22:25;;;;;;;;;;;14.90;99.90;;;;;;4970348;28;19989;-31
2023/09/22 01:24:51;;;;;;;;;;;14.90;99.90;;;;;;4970183;28;19930;-32
2023/09/22 01:27:18;;;;;;;;;;;14.90;99.90;;;;;;4972306;28;20004;-31
2023/09/22 01:29:45;;;;;;;;;;;14.90;99.90;;;;;;4971447;28;19926;-31
2023/09/22 01:32:11;;;;;;;;;;;14.90;99.90;;;;;;4955142;28;20355;-32
2023/09/22 01:34:38;;;;;;;;;;;14.90;99.90;;;;;;4973282;28;20342;-31
2023/09/22 01:37:07;;;;;;;;;;;14.80;99.90;;;;;;4972628;28;19926;-31
2023/09/22 01:39:35;;;;;;;;;;;14.80;99.90;;;;;;4971410;28;19969;-31
2023/09/22 01:42:02;;;;;;;;;;;14.80;99.90;;;;;;4971497;28;20389;-32
2023/09/22 01:44:28;;;;;;;;;;;14.80;99.90;;;;;;4970032;28;19926;-33
2023/09/22 01:46:55;;;;;;;;;;;14.80;99.90;;;;;;4973404;28;19933;-31
2023/09/22 01:49:22;;;;;;;;;;;14.70;99.90;;;;;;4970800;28;19993;-31
2023/09/22 01:51:48;;;;;;;;;;;14.70;99.90;;;;;;4972105;28;20373;-32
2023/09/22 01:54:15;;;;;;;;;;;14.70;99.90;;;;;;4971414;28;19926;-32
2023/09/22 01:56:43;;;;;;;;;;;14.60;99.90;;;;;;4971759;28;20386;-32
2023/09/22 01:59:10;;;;;;;;;;;14.60;99.90;;;;;;4966512;28;19938;-32
2023/09/22 02:01:37;;;;;;;;;;;14.60;99.90;;;;;;4970703;28;20353;-32
2023/09/22 02:04:04;;;;;;;;;;;14.60;99.90;;;;;;4975013;28;19926;-32
2023/09/22 02:06:31;;;;;;;;;;;14.60;99.90;;;;;;4976348;28;19934;-31
2023/09/22 02:08:57;;;;;;;;;;;14.60;99.90;;;;;;4974364;28;19927;-31
2023/09/22 02:11:24;;;;;;;;;;;14.60;99.90;;;;;;4976259;28;19926;-32
2023/09/22 02:13:52;;;;;;;;;;;14.60;99.90;;;;;;4974146;28;19926;-32
2023/09/22 02:16:20;;;;;;;;;;;14.60;99.90;;;;;;4975956;28;19973;-32
2023/09/22 02:18:46;;;;;;;;;;;14.60;99.90;;;;;;4973224;28;20013;-31
2023/09/22 02:21:14;;;;;;;;;;;14.60;99.90;;;;;;4975535;28;20275;-30
2023/09/22 02:23:40;;;;;;;;;;;14.60;99.90;;;;;;4975922;28;20393;-32
2023/09/22 02:26:07;;;;;;;;;;;14.50;99.90;;;;;;4974981;28;19926;-31
2023/09/22 02:28:34;;;;;;;;;;;14.50;99.90;;;;;;4974740;28;19930;-30
2023/09/22 02:31:02;;;;;;;;;;;14.50;99.90;;;;;;4958819;28;19972;-32
2023/09/22 02:33:30;;;;;;;;;;;14.50;99.90;;;;;;4975507;28;20386;-31
2023/09/22 02:35:59;;;;;;;;;;;14.40;99.90;;;;;;4976288;28;19926;-31
2023/09/22 02:38:25;;;;;;;;;;;14.40;99.90;;;;;;4974955;28;19930;-30
2023/09/22 02:40:52;;;;;;;;;;;14.40;99.90;;;;;;4975134;28;19981;-32
2023/09/22 02:43:19;;;;;;;;;;;14.40;99.90;;;;;;4976442;28;19973;-32
2023/09/22 02:45:45;;;;;;;;;;;14.40;99.90;;;;;;4975384;28;19977;-31
2023/09/22 02:48:13;;;;;;;;;;;14.40;99.90;;;;;;4971295;28;20457;-32
2023/09/22 02:50:40;;;;;;;;;;;14.40;99.90;;;;;;4973584;28;19926;-32
2023/09/22 02:53:07;;;;;;;;;;;14.40;99.90;;;;;;4974955;28;19981;-31
2023/09/22 02:55:37;;;;;;;;;;;14.40;99.90;;;;;;4917052;28;19982;-31
2023/09/22 02:58:03;;;;;;;;;;;14.30;99.90;;;;;;4973639;28;19969;-31
2023/09/22 03:00:30;;;;;;;;;;;14.30;99.90;;;;;;4973194;28;19926;-31
2023/09/22 03:02:57;;;;;;;;;;;14.30;99.90;;;;;;4974440;28;19926;-31
2023/09/22 03:05:25;;;;;;;;;;;14.30;99.90;;;;;;4975198;28;19927;-31
2023/09/22 03:07:52;;;;;;;;;;;14.30;99.90;;;;;;4973830;28;19930;-31
2023/09/22 03:10:18;;;;;;;;;;;14.30;99.90;;;;;;4973646;28;19977;-32
2023/09/22 03:12:46;;;;;;;;;;;14.30;99.90;;;;;;4974683;28;19933;-31
2023/09/22 03:15:13;;;;;;;;;;;14.40;99.90;;;;;;4974196;28;19933;-31
2023/09/22 03:17:40;;;;;;;;;;;14.30;99.90;;;;;;4957381;28;19934;-32
2023/09/22 03:20:07;;;;;;;;;;;14.40;99.90;;;;;;4972868;28;19934;-30
2023/09/22 03:22:35;;;;;;;;;;;14.30;99.90;;;;;;4975251;28;19926;-31
2023/09/22 03:25:03;;;;;;;;;;;14.30;99.90;;;;;;4973271;28;19993;-31
2023/09/22 03:27:32;;;;;;;;;;;14.30;99.90;;;;;;4973319;28;19927;-31
2023/09/22 03:29:58;;;;;;;;;;;14.30;99.90;;;;;;4957834;28;19988;-32
2023/09/22 03:32:27;;;;;;;;;;;14.30;99.90;;;;;;4957829;28;19973;-31
2023/09/22 03:34:53;;;;;;;;;;;14.30;99.90;;;;;;4973151;28;19930;-32
2023/09/22 03:37:20;;;;;;;;;;;14.30;99.90;;;;;;4974494;28;20042;-31
2023/09/22 03:39:48;;;;;;;;;;;14.20;99.90;;;;;;4974642;28;19933;-30
2023/09/22 03:42:15;;;;;;;;;;;14.20;99.90;;;;;;4974308;28;19930;-31
2023/09/22 03:44:42;;;;;;;;;;;14.20;99.90;;;;;;4957869;28;19926;-30
2023/09/22 03:47:08;;;;;;;;;;;14.20;99.90;;;;;;4974306;28;19977;-31
2023/09/22 03:49:35;;;;;;;;;;;14.20;99.90;;;;;;4974039;28;19981;-31
2023/09/22 03:52:02;;;;;;;;;;;14.20;99.90;;;;;;4974626;28;19930;-31
2023/09/22 03:54:28;;;;;;;;;;;14.20;99.90;;;;;;4973376;28;19977;-31
2023/09/22 03:56:57;;;;;;;;;;;14.20;99.90;;;;;;4956088;28;19927;-32
2023/09/22 03:59:24;;;;;;;;;;;14.10;99.90;;;;;;4970271;28;19926;-32
2023/09/22 04:01:51;;;;;;;;;;;14.10;99.90;;;;;;4972870;28;19926;-31
2023/09/22 04:04:17;;;;;;;;;;;14.10;99.90;;;;;;4972718;28;20421;-31
2023/09/22 04:06:44;;;;;;;;;;;14.10;99.90;;;;;;4974138;28;20473;-33
2023/09/22 04:09:11;;;;;;;;;;;14.10;99.90;;;;;;4957906;28;19926;-31
2023/09/22 04:11:38;;;;;;;;;;;14.10;99.90;;;;;;4972681;28;19926;-31
2023/09/22 04:14:06;;;;;;;;;;;14.10;99.90;;;;;;4972517;28;20008;-32
2023/09/22 04:16:33;;;;;;;;;;;14.10;99.90;;;;;;4972591;28;20391;-30
2023/09/22 04:18:59;;;;;;;;;;;14.10;99.90;;;;;;4974047;28;19926;-32
2023/09/22 04:21:26;;;;;;;;;;;14.10;99.90;;;;;;4973455;28;20374;-31
2023/09/22 04:23:57;;;;;;;;;;;14.00;99.90;;;;;;4972338;28;19926;-32
2023/09/22 04:26:27;;;;;;;;;;;14.00;99.90;;;;;;4972525;28;19926;-32
2023/09/22 04:28:55;;;;;;;;;;;14.00;99.90;;;;;;4971828;28;20004;-31
2023/09/22 04:31:23;;;;;;;;;;;14.00;99.90;;;;;;4972279;28;20020;-32
2023/09/22 04:33:51;;;;;;;;;;;14.00;99.90;;;;;;4971836;28;19999;-32
2023/09/22 04:36:18;;;;;;;;;;;14.00;99.90;;;;;;4971940;28;19940;-31
2023/09/22 04:38:45;;;;;;;;;;;14.00;99.90;;;;;;4952099;29;20055;-30
2023/09/22 04:41:12;;;;;;;;;;;14.00;99.90;;;;;;4969681;28;20042;-31
2023/09/22 04:43:39;;;;;;;;;;;14.00;99.90;;;;;;4971686;28;19926;-31
2023/09/22 04:46:06;;;;;;;;;;;13.90;99.90;;;;;;4970853;28;19934;-31
2023/09/22 04:48:34;;;;;;;;;;;13.90;99.90;;;;;;4972387;28;20382;-32
2023/09/22 04:51:01;;;;;;;;;;;13.90;99.90;;;;;;4972780;28;19926;-31
2023/09/22 04:53:28;;;;;;;;;;;13.90;99.90;;;;;;4972805;28;20000;-31
2023/09/22 04:56:01;;;;;;;;;;;13.80;99.90;;;;;;4961725;28;19978;-31
2023/09/22 04:58:28;;;;;;;;;;;13.80;99.90;;;;;;4971783;28;19929;-32
2023/09/22 05:00:55;;;;;;;;;;;13.70;99.90;;;;;;4971666;28;19985;-31
2023/09/22 05:03:22;;;;;;;;;;;13.70;99.90;;;;;;4973309;28;19977;-31
2023/09/22 05:05:50;;;;;;;;;;;13.70;99.90;;;;;;4969853;28;19977;-31
2023/09/22 05:08:17;;;;;;;;;;;13.70;99.90;;;;;;4969397;28;19930;-31
2023/09/22 05:10:46;;;;;;;;;;;13.60;99.90;;;;;;4967069;28;19938;-32
2023/09/22 05:13:15;;;;;;;;;;;13.60;99.90;;;;;;4954299;28;20063;-30
2023/09/22 05:15:43;;;;;;;;;;;13.60;99.90;;;;;;4971676;28;19982;-31
2023/09/22 05:18:12;;;;;;;;;;;13.50;99.90;;;;;;4971121;28;19933;-31
2023/09/22 05:20:39;;;;;;;;;;;13.50;99.90;;;;;;4969683;28;19933;-31
2023/09/22 05:23:07;;;;;;;;;;;13.50;99.90;;;;;;4971599;28;19926;-32
2023/09/22 05:25:38;;;;;;;;;;;13.50;99.90;;;;;;4967926;28;19953;-32
2023/09/22 05:28:05;;;;;;;;;;;13.50;99.90;;;;;;4965765;28;19934;-31
2023/09/22 05:30:32;;;;;;;;;;;13.50;99.90;;;;;;4966972;28;20392;-31
2023/09/22 05:32:59;;;;;;;;;;;13.50;99.90;;;;;;4967330;28;19930;-32
2023/09/22 05:35:26;;;;;;;;;;;13.40;99.90;;;;;;4951630;29;19927;-31
2023/09/22 05:37:53;;;;;;;;;;;13.40;99.90;;;;;;4973296;28;20370;-31
2023/09/22 05:40:21;;;;;;;;;;;13.40;99.90;;;;;;4977386;28;20286;-31
2023/09/22 05:42:47;;;;;;;;;;;13.40;99.90;;;;;;4976772;28;19933;-30
2023/09/22 05:45:14;;;;;;;;;;;13.40;99.90;;;;;;4978032;28;19933;-32
2023/09/22 05:47:41;;;;;;;;;;;13.30;99.90;;;;;;4956454;28;19981;-31
2023/09/22 05:50:09;;;;;;;;;;;13.40;99.90;;;;;;4957637;28;20382;-32
2023/09/22 05:52:36;;;;;;;;;;;13.30;99.90;;;;;;4956875;28;20283;-33
2023/09/22 05:55:04;;;;;;;;;;;13.40;99.90;;;;;;4956227;28;19932;-33
2023/09/22 05:57:33;;;;;;;;;;;13.40;99.90;;;;;;4958056;28;19978;-32
2023/09/22 06:00:00;;;;;;;;;;;13.40;99.90;;;;;;4969538;28;19933;-33
2023/09/22 06:02:28;;;;;;;;;;;13.40;99.90;;;;;;4957173;29;19931;-31
2023/09/22 06:04:55;;;;;;;;;;;13.40;99.90;;;;;;4967500;28;20368;-32
2023/09/22 06:07:22;;;;;;;;;;;13.40;99.90;;;;;;4950692;29;19948;-35
2023/09/22 06:09:50;;;;;;;;;;;13.40;99.90;;;;;;4953917;28;19934;-34
2023/09/22 06:12:16;;;;;;;;;;;13.30;99.90;;;;;;4953337;29;19930;-31
2023/09/22 06:14:45;;;;;;;;;;;13.40;99.90;;;;;;4970890;28;20434;-30
2023/09/22 06:17:11;;;;;;;;;;;13.30;99.90;;;;;;4953841;28;19926;-30
2023/09/22 06:19:39;;;;;;;;;;;13.40;99.90;;;;;;4971932;28;19930;-30
2023/09/22 06:22:06;;;;;;;;;;;13.40;99.90;;;;;;4970971;28;20385;-30
2023/09/22 06:24:33;;;;;;;;;;;13.40;99.90;;;;;;4971998;28;19926;-31
2023/09/22 06:26:59;;;;;;;;;;;13.40;99.90;;;;;;4972509;28;19930;-31
2023/09/22 06:29:27;;;;;;;;;;;13.50;99.90;;;;;;4973218;28;19927;-31
2023/09/22 06:31:55;;;;;;;;;;;13.40;99.90;;;;;;4955684;29;19930;-31
2023/09/22 06:34:21;;;;;;;;;;;13.50;99.90;;;;;;4972775;28;20393;-31
2023/09/22 06:36:48;;;;;;;;;;;13.50;99.90;;;;;;4956237;29;19974;-31
2023/09/22 06:39:15;;;;;;;;;;;13.50;99.90;;;;;;4957055;29;19926;-31
2023/09/22 06:41:41;;;;;;;;;;;13.50;99.90;;;;;;4972305;28;20442;-31
2023/09/22 06:44:08;;;;;;;;;;;13.50;99.90;;;;;;4952649;28;20430;-33
2023/09/22 06:46:35;;;;;;;;;;;13.50;99.90;;;;;;4957091;28;19977;-31
2023/09/22 06:49:07;;;;;;;;;;;13.60;99.90;;;;;;4971414;28;20417;-32
2023/09/22 06:51:36;;;;;;;;;;;13.60;99.90;;;;;;4972066;28;20307;-32
2023/09/22 06:54:03;;;;;;;;;;;13.60;99.90;;;;;;4954999;29;19933;-33
2023/09/22 06:56:30;;;;;;;;;;;13.70;99.90;;;;;;4969170;28;20310;-32
2023/09/22 06:58:57;;;;;;;;;;;13.70;99.90;;;;;;4973667;28;19954;-31
2023/09/22 07:01:23;;;;;;;;;;;13.80;99.90;;;;;;4971255;28;19973;-31
2023/09/22 07:03:50;;;;;;;;;;;13.80;99.90;;;;;;4972672;28;19931;-31
2023/09/22 07:06:19;;;;;;;;;;;13.80;99.90;;;;;;4973486;28;20243;-31
2023/09/22 07:08:46;;;;;;;;;;;13.80;99.90;;;;;;4972349;28;19933;-31
2023/09/22 07:11:13;;;;;;;;;;;13.90;99.90;;;;;;4962183;28;20052;-31
2023/09/22 07:13:40;;;;;;;;;;;13.90;99.90;;;;;;4971944;28;19930;-33
2023/09/22 07:16:07;;;;;;;;;;;13.90;99.90;;;;;;4953694;28;20024;-32
2023/09/22 07:18:34;;;;;;;;;;;13.90;99.90;;;;;;4972814;28;19926;-31
2023/09/22 07:21:01;;;;;;;;;;;13.90;99.90;;;;;;4972945;28;19930;-31
2023/09/22 07:23:30;;;;;;;;;;;13.90;99.90;;;;;;4970100;28;20204;-32
2023/09/22 07:26:00;;;;;;;;;;;13.90;99.90;;;;;;4970166;28;19953;-30
2023/09/22 07:28:26;;;;;;;;;;;13.90;99.90;;;;;;4973551;28;19926;-30
2023/09/22 07:30:53;;;;;;;;;;;13.90;99.90;;;;;;4971756;28;19957;-30
2023/09/22 07:33:20;;;;;;;;;;;13.90;99.90;;;;;;4970806;28;19938;-32
2023/09/22 07:35:48;;;;;;;;;;;14.00;99.90;;;;;;4973144;28;19934;-31
2023/09/22 07:38:16;;;;;;;;;;;14.00;99.90;;;;;;4963231;28;20032;-31
2023/09/22 07:40:44;;;;;;;;;;;14.00;99.90;;;;;;4973321;28;19997;-32
2023/09/22 07:43:11;;;;;;;;;;;14.00;99.90;;;;;;4973134;28;20390;-31
2023/09/22 07:45:37;;;;;;;;;;;14.00;99.90;;;;;;4972119;28;19953;-30
2023/09/22 07:48:04;;;;;;;;;;;14.00;99.90;;;;;;4971979;28;19973;-32
2023/09/22 07:50:32;;;;;;;;;;;14.00;99.90;;;;;;4971563;28;19930;-31
2023/09/22 07:52:59;;;;;;;;;;;14.10;99.90;;;;;;4955856;28;20393;-32
2023/09/22 07:55:25;;;;;;;;;;;14.10;99.90;;;;;;4969869;28;20267;-30
2023/09/22 07:57:53;;;;;;;;;;;14.20;99.90;;;;;;4973242;28;20283;-32
2023/09/22 08:00:20;;;;;;;;;;;14.20;99.90;;;;;;4970785;28;19985;-31
2023/09/22 08:02:47;;;;;;;;;;;14.30;99.90;;;;;;4972616;28;19926;-32
2023/09/22 08:05:15;;;;;;;;;;;14.30;99.90;;;;;;4972110;28;19930;-31
2023/09/22 08:07:42;;;;;;;;;;;14.40;99.90;;;;;;4972747;28;19981;-31
2023/09/22 08:10:10;;;;;;;;;;;14.40;99.90;;;;;;4972902;28;19933;-34
2023/09/22 08:12:36;;;;;;;;;;;14.50;99.90;;;;;;4972673;28;19926;-31
2023/09/22 08:15:05;;;;;;;;;;;14.50;99.90;;;;;;4972561;28;19933;-32
2023/09/22 08:17:32;;;;;;;;;;;14.60;99.90;;;;;;4971381;28;20319;-34
2023/09/22 08:19:58;;;;;;;;;;;14.60;99.90;;;;;;4971935;28;20334;-31
2023/09/22 08:22:26;;;;;;;;;;;14.60;99.90;;;;;;4971043;28;20283;-30
2023/09/22 08:24:53;;;;;;;;;;;14.70;99.90;;;;;;4972100;28;20441;-31
2023/09/22 08:27:19;;;;;;;;;;;14.70;99.90;;;;;;4970565;28;20346;-30
2023/09/22 08:29:47;;;;;;;;;;;14.70;99.90;;;;;;4972851;28;20362;-31
2023/09/22 08:32:15;;;;;;;;;;;14.80;99.90;;;;;;4972271;28;20638;-32
2023/09/22 08:34:42;;;;;;;;;;;14.80;99.90;;;;;;4971760;28;20000;-30
2023/09/22 08:37:08;;;;;;;;;;;14.90;99.90;;;;;;4970333;28;20343;-31
2023/09/22 08:39:35;;;;;;;;;;;14.90;99.90;;;;;;4970839;28;19984;-30
2023/09/22 08:42:02;;;;;;;;;;;15.00;99.90;;;;;;4970089;28;19987;-30
2023/09/22 08:44:29;;;;;;;;;;;15.10;99.90;;;;;;4969336;28;20374;-31
2023/09/22 08:46:56;;;;;;;;;;;15.10;99.90;;;;;;4969218;28;19934;-31
2023/09/22 08:49:24;;;;;;;;;;;15.20;99.90;;;;;;4935069;29;19927;-30
2023/09/22 08:51:50;;;;;;;;;;;15.20;99.90;;;;;;4950863;29;19934;-32
2023/09/22 08:54:18;;;;;;;;;;;15.30;99.90;;;;;;4935417;29;19931;-32
2023/09/22 08:56:44;;;;;;;;;;;15.50;99.90;;;;;;4950172;29;19973;-32
2023/09/22 08:59:12;;;;;;;;;;;15.60;99.90;;;;;;4935784;29;19926;-32
2023/09/22 09:01:38;;;;;;;;;;;15.70;99.90;;;;;;4949299;29;20400;-33
2023/09/22 09:04:20;;;;;;;;;;;15.70;99.90;;;;;;4951800;29;20339;-32
2023/09/22 09:06:48;;;;;;;;;;;15.70;99.90;;;;;;4952230;29;19927;-31
2023/09/22 09:09:15;;;;;;;;;;;15.70;99.90;;;;;;4951335;29;19930;-31
2023/09/22 09:11:56;;;;;;;;;;;15.80;99.90;;;;;;4951625;28;20341;-31
2023/09/22 09:14:23;;;;;;;;;;;15.70;99.90;;;;;;4952090;29;19933;-31
2023/09/22 09:16:50;;;;;;;;;;;15.70;99.90;;;;;;4952955;29;19930;-32
2023/09/22 09:19:17;;;;;;;;;;;15.80;99.90;;;;;;4950879;29;19934;-31
2023/09/22 09:21:58;;;;;;;;;;;15.90;99.90;;;;;;4950987;29;19927;-32
2023/09/22 09:24:26;;;;;;;;;;;16.00;99.90;;;;;;4951268;29;19989;-29
2023/09/22 09:26:53;;;;;;;;;;;16.00;99.90;;;;;;4951088;29;19966;-31
2023/09/22 09:29:26;;;;;;;;;;;16.20;99.90;;;;;;4950795;29;20180;-32
2023/09/22 09:31:53;;;;;;;;;;;16.20;99.90;;;;;;4951105;29;19927;-31
2023/09/22 09:34:22;;;;;;;;;;;16.40;99.90;;;;;;4951238;29;19926;-31
2023/09/22 09:36:49;;;;;;;;;;;16.50;99.90;;;;;;4952169;29;19926;-31
2023/09/22 09:39:18;;;;;;;;;;;16.60;99.90;;;;;;4952156;29;19956;-32
2023/09/22 09:41:46;;;;;;;;;;;16.70;99.90;;;;;;4951284;29;20329;-31
2023/09/22 09:44:13;;;;;;;;;;;16.80;99.90;;;;;;4951904;29;19927;-31
2023/09/22 09:46:40;;;;;;;;;;;16.80;99.90;;;;;;4952473;29;20374;-31
2023/09/22 09:49:08;;;;;;;;;;;16.90;99.90;;;;;;4967104;28;19926;-32
2023/09/22 09:51:36;;;;;;;;;;;17.00;99.90;;;;;;4971411;28;19930;-31
2023/09/22 09:54:04;;;;;;;;;;;17.10;99.90;;;;;;4969841;28;19929;-30
2023/09/22 09:56:31;;;;;;;;;;;17.20;99.90;;;;;;4969600;28;19934;-32
2023/09/22 09:59:02;;;;;;;;;;;17.20;99.90;;;;;;4970455;28;19930;-31
2023/09/22 10:01:30;;;;;;;;;;;17.30;99.90;;;;;;4954244;28;19930;-31
2023/09/22 10:03:57;;;;;;;;;;;17.30;99.90;;;;;;4971558;28;19973;-32
2023/09/22 10:06:25;;;;;;;;;;;17.50;99.90;;;;;;4969912;28;20248;-31
2023/09/22 10:08:51;;;;;;;;;;;17.50;99.90;;;;;;4971339;28;19948;-31
2023/09/22 10:11:18;;;;;;;;;;;17.60;99.90;;;;;;4969676;28;19969;-32
2023/09/22 10:13:45;;;;;;;;;;;17.90;99.90;;;;;;4971454;28;20398;-31
2023/09/22 10:16:13;;;;;;;;;;;18.10;99.90;;;;;;4970370;28;19926;-31
2023/09/22 10:18:44;;;;;;;;;;;18.30;99.90;;;;;;4970473;28;20339;-31
2023/09/22 10:21:24;;;;;;;;;;;18.40;99.90;;;;;;4970809;28;19930;-32
2023/09/22 10:24:05;;;;;;;;;;;18.50;99.90;;;;;;4972299;28;19926;-32
2023/09/22 10:26:32;;;;;;;;;;;18.60;99.90;;;;;;4973579;28;20364;-31
2023/09/22 10:28:59;;;;;;;;;;;18.70;99.90;;;;;;4974045;28;20373;-31
2023/09/22 10:31:27;;;;;;;;;;;18.80;99.90;;;;;;4972583;28;19976;-32
2023/09/22 10:33:53;;;;;;;;;;;18.80;99.90;;;;;;4989100;28;20363;-32
2023/09/22 10:36:39;;;;;;;;;;;18.90;99.90;;;;;;4973205;28;19930;-32
2023/09/22 10:39:06;;;;;;;;;;;19.10;99.90;;;;;;4974613;28;19973;-32
2023/09/22 10:41:32;;;;;;;;;;;19.20;99.90;;;;;;4970879;28;20371;-31
2023/09/22 10:44:01;;;;;;;;;;;19.10;99.90;;;;;;4981373;28;20347;-32
2023/09/22 10:46:29;;;;;;;;;;;19.00;99.90;;;;;;4957188;28;20413;-34
2023/09/22 10:48:57;;;;;;;;;;;18.80;99.90;;;;;;4973456;28;20402;-31
2023/09/22 10:51:39;;;;;;;;;;;18.60;99.90;;;;;;4975695;28;20272;-32
2023/09/22 10:54:05;;;;;;;;;;;18.50;99.90;;;;;;4963008;28;19926;-32
2023/09/22 10:56:35;;;;;;;;;;;18.50;99.90;;;;;;4973430;28;19933;-34
2023/09/22 10:59:02;;;;;;;;;;;18.50;99.90;;;;;;4972268;28;20091;-32
2023/09/22 11:01:30;;;;;;;;;;;18.60;99.90;;;;;;4969407;28;20017;-32
2023/09/22 11:04:03;;;;;;;;;;;18.70;99.90;;;;;;4972352;28;20054;-34
2023/09/22 11:06:30;;;;;;;;;;;18.80;99.90;;;;;;4972933;28;19933;-32
2023/09/22 11:08:57;;;;;;;;;;;18.80;99.90;;;;;;4972428;28;20390;-31
2023/09/22 11:11:23;;;;;;;;;;;18.80;99.90;;;;;;4972563;28;19933;-33
2023/09/22 11:13:53;;;;;;;;;;;18.80;99.90;;;;;;4973849;28;19930;-31
2023/09/22 11:16:20;;;;;;;;;;;18.90;99.90;;;;;;4973668;28;19930;-32
2023/09/22 11:18:49;;;;;;;;;;;18.90;99.90;;;;;;4975851;28;20381;-33
2023/09/22 11:21:16;;;;;;;;;;;19.00;99.90;;;;;;4974718;28;20017;-33
2023/09/22 11:23:43;;;;;;;;;;;19.30;99.90;;;;;;4973976;28;19926;-33
2023/09/22 11:26:10;;;;;;;;;;;19.30;99.90;;;;;;4972614;28;19966;-32
2023/09/22 11:28:40;;;;;;;;;;;19.40;99.90;;;;;;4974810;28;19934;-32
2023/09/22 11:31:08;;;;;;;;;;;19.40;99.90;;;;;;4974935;28;19934;-31
2023/09/22 11:33:36;;;;;;;;;;;19.30;99.90;;;;;;4973158;28;19926;-32
2023/09/22 11:36:04;;;;;;;;;;;19.20;99.90;;;;;;4971884;28;19936;-32
2023/09/22 11:38:31;;;;;;;;;;;19.00;99.90;;;;;;4973659;28;20302;-32
2023/09/22 11:41:07;;;;;;;;;;;18.90;99.90;;;;;;4974573;28;19926;-33
2023/09/22 11:43:36;;;;;;;;;;;18.80;99.90;;;;;;4975400;28;20366;-35
2023/09/22 11:46:09;;;;;;;;;;;18.70;99.90;;;;;;4972333;28;19934;-32
2023/09/22 11:48:55;;;;;;;;;;;18.70;99.90;;;;;;4972468;28;19933;-33
2023/09/22 11:51:23;;;;;;;;;;;18.70;99.90;;;;;;4968126;28;19930;-32
2023/09/22 11:53:50;;;;;;;;;;;18.70;99.90;;;;;;4972281;28;19938;-32
2023/09/22 11:56:17;;;;;;;;;;;18.70;99.90;;;;;;4971413;28;19981;-31
2023/09/22 11:58:44;;;;;;;;;;;18.70;99.90;;;;;;4973271;28;19932;-32
2023/09/22 12:01:10;;;;;;;;;;;18.60;99.90;;;;;;4971956;28;19973;-32
2023/09/22 12:03:37;;;;;;;;;;;18.60;99.90;;;;;;4950133;28;19931;-32
2023/09/22 12:06:04;;;;;;;;;;;18.60;99.90;;;;;;4972278;28;19926;-32
2023/09/22 12:08:32;;;;;;;;;;;18.70;99.90;;;;;;4972661;28;19989;-32
2023/09/22 12:11:00;;;;;;;;;;;18.70;99.90;;;;;;4972989;28;19932;-32
2023/09/22 12:13:27;;;;;;;;;;;18.80;99.90;;;;;;4974041;28;20284;-33
2023/09/22 12:15:54;;;;;;;;;;;18.80;99.90;;;;;;4973857;28;19989;-31
2023/09/22 12:18:21;;;;;;;;;;;18.70;99.90;;;;;;4969952;28;19941;-32
2023/09/22 12:20:48;;;;;;;;;;;18.70;99.90;;;;;;4968402;28;19973;-32
2023/09/22 12:23:15;;;;;;;;;;;18.60;99.90;;;;;;4966125;28;19930;-32
2023/09/22 12:25:43;;;;;;;;;;;18.60;99.90;;;;;;4967594;28;20382;-32
2023/09/22 12:28:09;;;;;;;;;;;18.50;99.90;;;;;;4969896;28;19926;-31
2023/09/22 12:30:36;;;;;;;;;;;18.40;99.90;;;;;;4972833;28;19930;-33
2023/09/22 12:33:03;;;;;;;;;;;18.40;99.90;;;;;;4950948;28;19930;-33
2023/09/22 12:35:29;;;;;;;;;;;18.40;99.90;;;;;;4970727;28;19927;-32
2023/09/22 12:37:56;;;;;;;;;;;18.30;99.90;;;;;;4965518;28;19955;-33
2023/09/22 12:40:23;;;;;;;;;;;18.30;99.90;;;;;;4970136;28;20379;-32
2023/09/22 12:42:51;;;;;;;;;;;18.40;99.90;;;;;;4962547;28;19993;-32
2023/09/22 12:45:19;;;;;;;;;;;18.40;99.90;;;;;;4965904;28;19974;-32
2023/09/22 12:47:46;;;;;;;;;;;18.40;99.90;;;;;;4967229;28;19983;-31
2023/09/22 12:50:12;;;;;;;;;;;18.40;99.90;;;;;;4959611;28;20290;-32
2023/09/22 12:52:40;;;;;;;;;;;18.50;99.90;;;;;;4965456;28;19933;-32
2023/09/22 12:55:07;;;;;;;;;;;18.50;99.90;;;;;;4973012;28;19926;-32
2023/09/22 12:57:34;;;;;;;;;;;18.40;99.90;;;;;;4971753;28;20020;-31
2023/09/22 13:00:03;;;;;;;;;;;18.40;99.90;;;;;;4958604;28;19926;-33
2023/09/22 13:02:30;;;;;;;;;;;18.40;99.90;;;;;;4946230;28;20363;-32
2023/09/22 13:04:57;;;;;;;;;;;18.50;99.90;;;;;;4964140;28;19980;-33
2023/09/22 13:07:23;;;;;;;;;;;18.50;99.90;;;;;;4953329;28;19930;-31
2023/09/22 13:09:50;;;;;;;;;;;18.50;99.90;;;;;;4949902;28;20342;-31
2023/09/22 13:12:17;;;;;;;;;;;18.50;99.90;;;;;;4953397;28;19938;-32
2023/09/22 13:14:43;;;;;;;;;;;18.50;99.90;;;;;;4971635;28;19930;-31
2023/09/22 13:17:14;;;;;;;;;;;18.50;99.90;;;;;;4953521;28;20002;-32
2023/09/22 13:19:40;;;;;;;;;;;18.40;99.90;;;;;;4971556;28;19948;-32
2023/09/22 13:22:07;;;;;;;;;;;18.20;99.90;;;;;;4971740;28;20271;-32
2023/09/22 13:24:33;;;;;;;;;;;18.10;99.90;;;;;;4970616;28;20016;-31
2023/09/22 13:27:00;;;;;;;;;;;18.10;99.90;;;;;;4969725;28;20322;-33
2023/09/22 13:29:27;;;;;;;;;;;18.10;99.90;;;;;;4969923;28;20331;-31
2023/09/22 13:31:53;;;;;;;;;;;18.10;99.90;;;;;;4967128;28;19993;-32
2023/09/22 13:34:21;;;;;;;;;;;18.10;99.90;;;;;;4970485;28;19944;-32
2023/09/22 13:36:48;;;;;;;;;;;18.20;99.90;;;;;;4970642;28;19981;-32
2023/09/22 13:39:15;;;;;;;;;;;18.30;99.90;;;;;;4968983;28;19934;-31
2023/09/22 13:41:42;;;;;;;;;;;18.40;99.90;;;;;;4952302;28;19972;-31
2023/09/22 13:44:10;;;;;;;;;;;18.40;99.90;;;;;;4969307;28;20098;-32
2023/09/22 13:46:36;;;;;;;;;;;18.40;99.90;;;;;;4953934;28;19984;-32
2023/09/22 13:49:03;;;;;;;;;;;18.40;99.90;;;;;;4968654;28;19962;-32
2023/09/22 13:51:32;;;;;;;;;;;18.50;99.90;;;;;;4970794;28;19938;-33
2023/09/22 13:53:58;;;;;;;;;;;18.50;99.90;;;;;;4969682;28;20294;-32
2023/09/22 13:56:25;;;;;;;;;;;18.40;99.90;;;;;;4970152;28;19926;-32
2023/09/22 13:58:51;;;;;;;;;;;18.40;99.90;;;;;;4971606;28;20016;-32
2023/09/22 14:01:20;;;;;;;;;;;18.40;99.90;;;;;;4970471;28;19934;-32
2023/09/22 14:03:48;;;;;;;;;;;18.40;99.90;;;;;;4955684;28;19981;-33
2023/09/22 14:06:15;;;;;;;;;;;18.40;99.90;;;;;;4972646;28;20391;-33
2023/09/22 14:08:45;;;;;;;;;;;18.40;99.90;;;;;;4974422;28;19930;-33
2023/09/22 14:11:12;;;;;;;;;;;18.50;99.90;;;;;;4973747;28;21288;-33
2023/09/22 14:13:38;;;;;;;;;;;18.50;99.90;;;;;;4957863;28;19933;-33
2023/09/22 14:16:05;;;;;;;;;;;18.60;99.90;;;;;;4975073;28;19940;-32
2023/09/22 14:18:32;;;;;;;;;;;18.80;99.90;;;;;;4956447;28;19930;-32